Terminal Aerodrome Forecast
Issued by NWS

Home | Current Version | Previous Version | Graphics & Text | Print | Product List | Glossary On
Versions: 1 2 3 4 5 6 7 8 9 10 11 12 13 14 15 16 17 18 19 20 21 22 23 24 25 26 27
136
FTUS43 KLOT 231130
TAFORD
TAF
KORD 231130Z 2312/2418 02010KT 6SM BR BKN008
     FM231500 04010KT P6SM SCT008 BKN015
     FM231700 05010KT P6SM BKN020
     FM232100 05012KT P6SM SCT020 BKN035
     FM240500 06008KT P6SM BKN020=

USA.gov is the U.S. government's official web portal to all federal, state and local government web resources and services.